sensor_id;sensor_type;location;lat;lon;timestamp;P1;durP1;ratioP1;P2;durP2;ratioP2
77563;SDS011;66703;48.076;9.220;2023-02-11T00:00:47;41.92;;;38.42;;
77563;SDS011;66703;48.076;9.220;2023-02-11T00:03:12;50.72;;;47.00;;
77563;SDS011;66703;48.076;9.220;2023-02-11T00:05:38;110.43;;;105.57;;
77563;SDS011;66703;48.076;9.220;2023-02-11T00:08:03;45.80;;;42.58;;
77563;SDS011;66703;48.076;9.220;2023-02-11T00:10:29;50.03;;;45.95;;
77563;SDS011;66703;48.076;9.220;2023-02-11T00:12:54;48.67;;;45.08;;
77563;SDS011;66703;48.076;9.220;2023-02-11T00:15:20;54.10;;;50.47;;
77563;SDS011;66703;48.076;9.220;2023-02-11T00:17:45;46.65;;;42.67;;
77563;SDS011;66703;48.076;9.220;2023-02-11T00:20:10;44.92;;;40.97;;
77563;SDS011;66703;48.076;9.220;2023-02-11T00:22:36;46.03;;;42.33;;
77563;SDS011;66703;48.076;9.220;2023-02-11T00:25:04;62.17;;;58.55;;
77563;SDS011;66703;48.076;9.220;2023-02-11T00:27:30;43.35;;;40.25;;
77563;SDS011;66703;48.076;9.220;2023-02-11T00:29:55;44.63;;;41.13;;
77563;SDS011;66703;48.076;9.220;2023-02-11T00:32:21;47.42;;;43.58;;
77563;SDS011;66703;48.076;9.220;2023-02-11T00:34:46;46.05;;;42.17;;
77563;SDS011;66703;48.076;9.220;2023-02-11T00:37:11;43.42;;;39.97;;
77563;SDS011;66703;48.076;9.220;2023-02-11T00:39:37;47.20;;;43.72;;
77563;SDS011;66703;48.076;9.220;2023-02-11T00:42:03;49.15;;;45.85;;
77563;SDS011;66703;48.076;9.220;2023-02-11T00:44:28;41.17;;;37.70;;
77563;SDS011;66703;48.076;9.220;2023-02-11T00:46:54;47.83;;;44.55;;
77563;SDS011;66703;48.076;9.220;2023-02-11T00:49:19;40.40;;;37.00;;
77563;SDS011;66703;48.076;9.220;2023-02-11T00:51:44;54.80;;;51.10;;
77563;SDS011;66703;48.076;9.220;2023-02-11T00:54:10;45.58;;;42.25;;
77563;SDS011;66703;48.076;9.220;2023-02-11T00:56:35;41.60;;;38.63;;
77563;SDS011;66703;48.076;9.220;2023-02-11T00:59:01;47.45;;;44.13;;
77563;SDS011;66703;48.076;9.220;2023-02-11T01:01:26;48.55;;;45.10;;
77563;SDS011;66703;48.076;9.220;2023-02-11T01:03:51;49.10;;;45.28;;
77563;SDS011;66703;48.076;9.220;2023-02-11T01:06:17;61.47;;;57.70;;
77563;SDS011;66703;48.076;9.220;2023-02-11T01:08:42;48.08;;;44.92;;
77563;SDS011;66703;48.076;9.220;2023-02-11T01:11:15;44.65;;;41.42;;
77563;SDS011;66703;48.076;9.220;2023-02-11T01:13:42;47.55;;;44.13;;
77563;SDS011;66703;48.076;9.220;2023-02-11T01:16:08;47.90;;;44.25;;
77563;SDS011;66703;48.076;9.220;2023-02-11T01:18:35;62.63;;;59.20;;
77563;SDS011;66703;48.076;9.220;2023-02-11T01:21:01;45.50;;;42.25;;
77563;SDS011;66703;48.076;9.220;2023-02-11T01:23:27;57.40;;;53.50;;
77563;SDS011;66703;48.076;9.220;2023-02-11T01:25:52;47.85;;;44.10;;
77563;SDS011;66703;48.076;9.220;2023-02-11T01:28:19;45.22;;;41.95;;
77563;SDS011;66703;48.076;9.220;2023-02-11T01:30:48;49.22;;;45.95;;
77563;SDS011;66703;48.076;9.220;2023-02-11T01:33:14;49.67;;;45.75;;
77563;SDS011;66703;48.076;9.220;2023-02-11T01:35:39;61.35;;;57.67;;
77563;SDS011;66703;48.076;9.220;2023-02-11T01:38:05;39.55;;;36.53;;
77563;SDS011;66703;48.076;9.220;2023-02-11T01:40:31;37.15;;;33.85;;
77563;SDS011;66703;48.076;9.220;2023-02-11T01:42:57;50.15;;;46.83;;
77563;SDS011;66703;48.076;9.220;2023-02-11T01:48:12;36.78;;;34.15;;
77563;SDS011;66703;48.076;9.220;2023-02-11T01:50:39;43.40;;;40.17;;
77563;SDS011;66703;48.076;9.220;2023-02-11T01:53:06;48.45;;;45.28;;
77563;SDS011;66703;48.076;9.220;2023-02-11T01:55:51;54.03;;;50.97;;
77563;SDS011;66703;48.076;9.220;2023-02-11T01:58:35;54.45;;;50.85;;
77563;SDS011;66703;48.076;9.220;2023-02-11T02:01:03;65.35;;;61.25;;
77563;SDS011;66703;48.076;9.220;2023-02-11T02:03:28;43.63;;;40.25;;
77563;SDS011;66703;48.076;9.220;2023-02-11T02:11:19;55.88;;;52.35;;
77563;SDS011;66703;48.076;9.220;2023-02-11T02:13:45;67.38;;;63.60;;
77563;SDS011;66703;48.076;9.220;2023-02-11T02:16:11;50.75;;;46.65;;
77563;SDS011;66703;48.076;9.220;2023-02-11T02:27:28;62.08;;;58.38;;
77563;SDS011;66703;48.076;9.220;2023-02-11T02:33:10;64.85;;;61.67;;
77563;SDS011;66703;48.076;9.220;2023-02-11T02:36:06;59.15;;;55.47;;
77563;SDS011;66703;48.076;9.220;2023-02-11T02:38:38;45.38;;;42.10;;
77563;SDS011;66703;48.076;9.220;2023-02-11T02:41:09;46.63;;;43.50;;
77563;SDS011;66703;48.076;9.220;2023-02-11T02:43:39;46.40;;;42.83;;
77563;SDS011;66703;48.076;9.220;2023-02-11T02:46:14;52.53;;;48.92;;
77563;SDS011;66703;48.076;9.220;2023-02-11T02:48:39;52.95;;;49.25;;
77563;SDS011;66703;48.076;9.220;2023-02-11T02:59:48;46.20;;;43.47;;
77563;SDS011;66703;48.076;9.220;2023-02-11T03:02:39;54.80;;;51.63;;
77563;SDS011;66703;48.076;9.220;2023-02-11T03:05:33;42.80;;;39.70;;
77563;SDS011;66703;48.076;9.220;2023-02-11T03:10:49;86.57;;;82.32;;
77563;SDS011;66703;48.076;9.220;2023-02-11T03:13:17;78.90;;;74.68;;
77563;SDS011;66703;48.076;9.220;2023-02-11T03:15:45;61.92;;;58.25;;
77563;SDS011;66703;48.076;9.220;2023-02-11T03:18:14;50.20;;;46.53;;
77563;SDS011;66703;48.076;9.220;2023-02-11T03:20:43;58.38;;;54.80;;
77563;SDS011;66703;48.076;9.220;2023-02-11T03:23:11;56.45;;;52.85;;
77563;SDS011;66703;48.076;9.220;2023-02-11T03:25:50;66.90;;;63.22;;
77563;SDS011;66703;48.076;9.220;2023-02-11T03:30:57;53.75;;;50.40;;
77563;SDS011;66703;48.076;9.220;2023-02-11T03:34:15;43.35;;;40.10;;
77563;SDS011;66703;48.076;9.220;2023-02-11T03:36:38;53.17;;;50.28;;
77563;SDS011;66703;48.076;9.220;2023-02-11T03:39:10;66.28;;;62.10;;
77563;SDS011;66703;48.076;9.220;2023-02-11T03:41:36;47.05;;;43.45;;
77563;SDS011;66703;48.076;9.220;2023-02-11T03:44:02;48.92;;;45.65;;
77563;SDS011;66703;48.076;9.220;2023-02-11T03:46:30;47.63;;;44.38;;
77563;SDS011;66703;48.076;9.220;2023-02-11T03:48:57;48.45;;;44.78;;
77563;SDS011;66703;48.076;9.220;2023-02-11T03:51:27;44.55;;;41.35;;
77563;SDS011;66703;48.076;9.220;2023-02-11T03:53:54;52.10;;;48.78;;
77563;SDS011;66703;48.076;9.220;2023-02-11T03:56:20;45.70;;;42.45;;
77563;SDS011;66703;48.076;9.220;2023-02-11T03:58:48;40.15;;;37.15;;
77563;SDS011;66703;48.076;9.220;2023-02-11T04:01:13;44.47;;;41.15;;
77563;SDS011;66703;48.076;9.220;2023-02-11T04:03:42;45.35;;;42.35;;
77563;SDS011;66703;48.076;9.220;2023-02-11T04:06:07;41.13;;;38.15;;
77563;SDS011;66703;48.076;9.220;2023-02-11T04:08:33;48.15;;;44.88;;
77563;SDS011;66703;48.076;9.220;2023-02-11T04:10:58;47.22;;;43.63;;
77563;SDS011;66703;48.076;9.220;2023-02-11T04:13:24;87.47;;;83.20;;
77563;SDS011;66703;48.076;9.220;2023-02-11T04:15:50;54.38;;;50.83;;
77563;SDS011;66703;48.076;9.220;2023-02-11T04:18:15;42.28;;;39.25;;
77563;SDS011;66703;48.076;9.220;2023-02-11T04:20:40;49.50;;;46.22;;
77563;SDS011;66703;48.076;9.220;2023-02-11T04:23:06;54.20;;;50.97;;
77563;SDS011;66703;48.076;9.220;2023-02-11T04:25:31;50.03;;;46.78;;
77563;SDS011;66703;48.076;9.220;2023-02-11T04:28:00;49.65;;;46.45;;
77563;SDS011;66703;48.076;9.220;2023-02-11T04:30:25;45.80;;;42.38;;
77563;SDS011;66703;48.076;9.220;2023-02-11T04:32:51;54.40;;;51.10;;
77563;SDS011;66703;48.076;9.220;2023-02-11T04:35:18;51.35;;;47.10;;
77563;SDS011;66703;48.076;9.220;2023-02-11T04:37:43;86.65;;;82.32;;
77563;SDS011;66703;48.076;9.220;2023-02-11T04:40:11;43.75;;;40.45;;
77563;SDS011;66703;48.076;9.220;2023-02-11T04:42:37;47.40;;;43.97;;
77563;SDS011;66703;48.076;9.220;2023-02-11T04:45:02;47.33;;;43.95;;
77563;SDS011;66703;48.076;9.220;2023-02-11T04:47:28;76.80;;;72.47;;
77563;SDS011;66703;48.076;9.220;2023-02-11T04:49:53;44.47;;;41.13;;
77563;SDS011;66703;48.076;9.220;2023-02-11T04:52:19;49.30;;;46.03;;
77563;SDS011;66703;48.076;9.220;2023-02-11T04:54:44;52.03;;;48.92;;
77563;SDS011;66703;48.076;9.220;2023-02-11T04:57:09;46.40;;;43.45;;
77563;SDS011;66703;48.076;9.220;2023-02-11T04:59:35;56.90;;;53.40;;
77563;SDS011;66703;48.076;9.220;2023-02-11T05:02:00;43.92;;;40.78;;
77563;SDS011;66703;48.076;9.220;2023-02-11T05:04:25;55.97;;;52.33;;
77563;SDS011;66703;48.076;9.220;2023-02-11T05:06:51;53.28;;;49.58;;
77563;SDS011;66703;48.076;9.220;2023-02-11T05:09:16;58.78;;;54.90;;
77563;SDS011;66703;48.076;9.220;2023-02-11T05:11:42;48.20;;;44.05;;
77563;SDS011;66703;48.076;9.220;2023-02-11T05:14:07;62.55;;;58.42;;
77563;SDS011;66703;48.076;9.220;2023-02-11T05:16:33;56.50;;;52.97;;
77563;SDS011;66703;48.076;9.220;2023-02-11T05:18:58;55.50;;;51.72;;
77563;SDS011;66703;48.076;9.220;2023-02-11T05:21:24;48.22;;;44.88;;
77563;SDS011;66703;48.076;9.220;2023-02-11T05:23:49;49.20;;;45.63;;
77563;SDS011;66703;48.076;9.220;2023-02-11T05:26:15;52.53;;;48.80;;
77563;SDS011;66703;48.076;9.220;2023-02-11T05:28:44;51.00;;;47.10;;
77563;SDS011;66703;48.076;9.220;2023-02-11T05:31:10;54.42;;;50.75;;
77563;SDS011;66703;48.076;9.220;2023-02-11T05:33:36;57.35;;;54.00;;
77563;SDS011;66703;48.076;9.220;2023-02-11T05:36:03;52.58;;;48.97;;
77563;SDS011;66703;48.076;9.220;2023-02-11T05:38:31;45.78;;;42.40;;
77563;SDS011;66703;48.076;9.220;2023-02-11T05:40:57;51.17;;;47.33;;
77563;SDS011;66703;48.076;9.220;2023-02-11T05:43:22;54.05;;;50.70;;
77563;SDS011;66703;48.076;9.220;2023-02-11T05:45:48;50.95;;;47.22;;
77563;SDS011;66703;48.076;9.220;2023-02-11T05:48:13;45.33;;;41.90;;
77563;SDS011;66703;48.076;9.220;2023-02-11T05:50:39;50.47;;;46.80;;
77563;SDS011;66703;48.076;9.220;2023-02-11T05:53:05;48.40;;;45.20;;
77563;SDS011;66703;48.076;9.220;2023-02-11T05:55:33;52.60;;;48.95;;
77563;SDS011;66703;48.076;9.220;2023-02-11T05:57:59;61.45;;;58.08;;
77563;SDS011;66703;48.076;9.220;2023-02-11T06:00:24;50.50;;;46.85;;
77563;SDS011;66703;48.076;9.220;2023-02-11T06:02:50;54.92;;;51.50;;
77563;SDS011;66703;48.076;9.220;2023-02-11T06:05:15;60.63;;;57.30;;
77563;SDS011;66703;48.076;9.220;2023-02-11T06:07:41;55.58;;;52.13;;
77563;SDS011;66703;48.076;9.220;2023-02-11T06:10:06;54.00;;;50.40;;
77563;SDS011;66703;48.076;9.220;2023-02-11T06:12:32;50.10;;;47.00;;
77563;SDS011;66703;48.076;9.220;2023-02-11T06:14:57;50.97;;;46.95;;
77563;SDS011;66703;48.076;9.220;2023-02-11T06:17:23;53.25;;;49.83;;
77563;SDS011;66703;48.076;9.220;2023-02-11T06:19:49;51.10;;;47.33;;
77563;SDS011;66703;48.076;9.220;2023-02-11T06:22:14;57.13;;;53.33;;
77563;SDS011;66703;48.076;9.220;2023-02-11T06:24:40;49.33;;;45.78;;
77563;SDS011;66703;48.076;9.220;2023-02-11T06:27:06;62.30;;;59.20;;
77563;SDS011;66703;48.076;9.220;2023-02-11T06:29:31;48.00;;;44.72;;
77563;SDS011;66703;48.076;9.220;2023-02-11T06:31:57;86.65;;;82.70;;
77563;SDS011;66703;48.076;9.220;2023-02-11T06:34:22;56.53;;;52.67;;
77563;SDS011;66703;48.076;9.220;2023-02-11T06:36:47;47.63;;;44.22;;
77563;SDS011;66703;48.076;9.220;2023-02-11T06:39:13;49.90;;;46.42;;
77563;SDS011;66703;48.076;9.220;2023-02-11T06:41:38;53.58;;;49.83;;
77563;SDS011;66703;48.076;9.220;2023-02-11T06:44:04;52.50;;;48.97;;
77563;SDS011;66703;48.076;9.220;2023-02-11T06:46:30;54.10;;;50.58;;
77563;SDS011;66703;48.076;9.220;2023-02-11T06:48:55;48.30;;;45.25;;
77563;SDS011;66703;48.076;9.220;2023-02-11T06:51:21;52.53;;;48.90;;
77563;SDS011;66703;48.076;9.220;2023-02-11T06:53:46;46.47;;;43.00;;
77563;SDS011;66703;48.076;9.220;2023-02-11T06:56:13;50.42;;;47.08;;
77563;SDS011;66703;48.076;9.220;2023-02-11T06:58:40;50.47;;;47.22;;
77563;SDS011;66703;48.076;9.220;2023-02-11T07:01:06;45.78;;;42.55;;
77563;SDS011;66703;48.076;9.220;2023-02-11T07:03:36;54.63;;;51.47;;
77563;SDS011;66703;48.076;9.220;2023-02-11T07:06:03;48.20;;;44.88;;
77563;SDS011;66703;48.076;9.220;2023-02-11T07:08:30;49.22;;;46.08;;
77563;SDS011;66703;48.076;9.220;2023-02-11T07:10:56;52.80;;;49.67;;
77563;SDS011;66703;48.076;9.220;2023-02-11T07:13:25;60.17;;;56.03;;
77563;SDS011;66703;48.076;9.220;2023-02-11T07:15:50;52.33;;;48.42;;
77563;SDS011;66703;48.076;9.220;2023-02-11T07:18:16;42.28;;;39.17;;
77563;SDS011;66703;48.076;9.220;2023-02-11T07:20:41;47.25;;;43.78;;
77563;SDS011;66703;48.076;9.220;2023-02-11T07:23:06;56.40;;;53.03;;
77563;SDS011;66703;48.076;9.220;2023-02-11T07:25:32;45.25;;;42.13;;
77563;SDS011;66703;48.076;9.220;2023-02-11T07:28:00;51.88;;;48.00;;
77563;SDS011;66703;48.076;9.220;2023-02-11T07:30:26;44.47;;;41.55;;
77563;SDS011;66703;48.076;9.220;2023-02-11T07:32:51;41.35;;;38.38;;
77563;SDS011;66703;48.076;9.220;2023-02-11T07:35:17;50.72;;;47.50;;
77563;SDS011;66703;48.076;9.220;2023-02-11T07:37:43;42.22;;;39.08;;
77563;SDS011;66703;48.076;9.220;2023-02-11T07:40:08;42.33;;;39.28;;
77563;SDS011;66703;48.076;9.220;2023-02-11T07:42:34;52.28;;;48.75;;
77563;SDS011;66703;48.076;9.220;2023-02-11T07:45:00;40.67;;;37.55;;
77563;SDS011;66703;48.076;9.220;2023-02-11T07:47:25;43.58;;;40.40;;
77563;SDS011;66703;48.076;9.220;2023-02-11T07:49:54;39.25;;;36.00;;
77563;SDS011;66703;48.076;9.220;2023-02-11T07:52:19;48.17;;;44.47;;
77563;SDS011;66703;48.076;9.220;2023-02-11T07:54:46;53.47;;;49.75;;
77563;SDS011;66703;48.076;9.220;2023-02-11T07:57:12;42.65;;;39.25;;
77563;SDS011;66703;48.076;9.220;2023-02-11T07:59:37;41.03;;;37.85;;
77563;SDS011;66703;48.076;9.220;2023-02-11T08:02:03;47.67;;;44.10;;
77563;SDS011;66703;48.076;9.220;2023-02-11T08:04:28;56.90;;;53.22;;
77563;SDS011;66703;48.076;9.220;2023-02-11T08:06:53;52.70;;;49.13;;
77563;SDS011;66703;48.076;9.220;2023-02-11T08:09:21;44.22;;;41.13;;
77563;SDS011;66703;48.076;9.220;2023-02-11T08:11:47;50.75;;;47.38;;
77563;SDS011;66703;48.076;9.220;2023-02-11T08:14:12;44.92;;;41.70;;
77563;SDS011;66703;48.076;9.220;2023-02-11T08:16:38;48.17;;;44.30;;
77563;SDS011;66703;48.076;9.220;2023-02-11T08:19:09;46.75;;;43.33;;
77563;SDS011;66703;48.076;9.220;2023-02-11T08:21:36;51.33;;;47.90;;
77563;SDS011;66703;48.076;9.220;2023-02-11T08:24:03;40.90;;;37.67;;
77563;SDS011;66703;48.076;9.220;2023-02-11T08:26:29;47.50;;;44.05;;
77563;SDS011;66703;48.076;9.220;2023-02-11T08:28:56;66.95;;;62.92;;
77563;SDS011;66703;48.076;9.220;2023-02-11T08:31:23;47.10;;;43.63;;
77563;SDS011;66703;48.076;9.220;2023-02-11T08:33:50;46.25;;;42.80;;
77563;SDS011;66703;48.076;9.220;2023-02-11T08:36:22;50.90;;;47.35;;
77563;SDS011;66703;48.076;9.220;2023-02-11T08:38:55;49.22;;;45.97;;
77563;SDS011;66703;48.076;9.220;2023-02-11T08:41:21;37.42;;;34.55;;
77563;SDS011;66703;48.076;9.220;2023-02-11T08:43:47;41.83;;;38.75;;
77563;SDS011;66703;48.076;9.220;2023-02-11T08:46:14;44.35;;;41.17;;
77563;SDS011;66703;48.076;9.220;2023-02-11T08:48:42;45.30;;;41.97;;
77563;SDS011;66703;48.076;9.220;2023-02-11T08:51:09;43.72;;;40.40;;
77563;SDS011;66703;48.076;9.220;2023-02-11T08:53:37;39.38;;;36.05;;
77563;SDS011;66703;48.076;9.220;2023-02-11T08:56:03;49.17;;;45.55;;
77563;SDS011;66703;48.076;9.220;2023-02-11T08:58:30;40.45;;;37.15;;
77563;SDS011;66703;48.076;9.220;2023-02-11T09:00:55;41.40;;;37.97;;
77563;SDS011;66703;48.076;9.220;2023-02-11T09:03:20;49.22;;;45.70;;
77563;SDS011;66703;48.076;9.220;2023-02-11T09:05:46;53.88;;;49.85;;
77563;SDS011;66703;48.076;9.220;2023-02-11T09:08:14;39.25;;;36.15;;
77563;SDS011;66703;48.076;9.220;2023-02-11T09:10:40;36.05;;;32.63;;
77563;SDS011;66703;48.076;9.220;2023-02-11T09:13:06;38.72;;;35.08;;
77563;SDS011;66703;48.076;9.220;2023-02-11T09:15:32;46.03;;;42.33;;
77563;SDS011;66703;48.076;9.220;2023-02-11T09:18:01;43.20;;;39.38;;
77563;SDS011;66703;48.076;9.220;2023-02-11T09:20:27;49.67;;;46.17;;
77563;SDS011;66703;48.076;9.220;2023-02-11T09:22:53;47.47;;;43.72;;
77563;SDS011;66703;48.076;9.220;2023-02-11T09:25:19;40.67;;;36.65;;
77563;SDS011;66703;48.076;9.220;2023-02-11T09:27:44;42.15;;;38.28;;
77563;SDS011;66703;48.076;9.220;2023-02-11T09:30:10;42.97;;;39.17;;
77563;SDS011;66703;48.076;9.220;2023-02-11T09:32:36;43.83;;;39.60;;
77563;SDS011;66703;48.076;9.220;2023-02-11T09:35:01;51.63;;;46.92;;
77563;SDS011;66703;48.076;9.220;2023-02-11T09:37:27;44.35;;;40.25;;
77563;SDS011;66703;48.076;9.220;2023-02-11T09:39:52;40.72;;;36.45;;
77563;SDS011;66703;48.076;9.220;2023-02-11T09:42:37;36.70;;;32.90;;
77563;SDS011;66703;48.076;9.220;2023-02-11T09:45:05;46.90;;;42.88;;
77563;SDS011;66703;48.076;9.220;2023-02-11T09:47:51;45.83;;;39.90;;
77563;SDS011;66703;48.076;9.220;2023-02-11T09:50:22;41.72;;;37.20;;
77563;SDS011;66703;48.076;9.220;2023-02-11T09:57:56;38.50;;;34.45;;
77563;SDS011;66703;48.076;9.220;2023-02-11T10:03:03;40.53;;;36.33;;
77563;SDS011;66703;48.076;9.220;2023-02-11T10:08:36;42.53;;;36.30;;
77563;SDS011;66703;48.076;9.220;2023-02-11T10:17:12;36.72;;;31.35;;
77563;SDS011;66703;48.076;9.220;2023-02-11T10:19:59;38.25;;;34.10;;
77563;SDS011;66703;48.076;9.220;2023-02-11T10:22:46;32.92;;;29.30;;
77563;SDS011;66703;48.076;9.220;2023-02-11T10:27:47;51.42;;;46.72;;
77563;SDS011;66703;48.076;9.220;2023-02-11T10:30:21;37.58;;;33.80;;
77563;SDS011;66703;48.076;9.220;2023-02-11T10:32:53;45.88;;;41.83;;
77563;SDS011;66703;48.076;9.220;2023-02-11T10:35:24;33.22;;;25.83;;
77563;SDS011;66703;48.076;9.220;2023-02-11T10:37:54;31.52;;;26.67;;
77563;SDS011;66703;48.076;9.220;2023-02-11T10:40:24;35.00;;;31.63;;
77563;SDS011;66703;48.076;9.220;2023-02-11T10:42:55;34.78;;;31.02;;
77563;SDS011;66703;48.076;9.220;2023-02-11T10:45:29;32.60;;;26.52;;
77563;SDS011;66703;48.076;9.220;2023-02-11T10:47:57;33.92;;;26.27;;
77563;SDS011;66703;48.076;9.220;2023-02-11T10:50:25;27.55;;;24.67;;
77563;SDS011;66703;48.076;9.220;2023-02-11T10:52:52;38.97;;;35.17;;
77563;SDS011;66703;48.076;9.220;2023-02-11T10:55:49;33.63;;;24.48;;
77563;SDS011;66703;48.076;9.220;2023-02-11T10:58:27;28.75;;;24.58;;
77563;SDS011;66703;48.076;9.220;2023-02-11T11:00:56;31.50;;;23.98;;
77563;SDS011;66703;48.076;9.220;2023-02-11T11:03:23;32.47;;;25.65;;
77563;SDS011;66703;48.076;9.220;2023-02-11T11:05:52;29.83;;;26.13;;
77563;SDS011;66703;48.076;9.220;2023-02-11T11:08:36;35.03;;;30.83;;
77563;SDS011;66703;48.076;9.220;2023-02-11T11:11:13;34.55;;;22.92;;
77563;SDS011;66703;48.076;9.220;2023-02-11T11:13:56;28.67;;;24.50;;
77563;SDS011;66703;48.076;9.220;2023-02-11T11:16:27;29.58;;;24.60;;
77563;SDS011;66703;48.076;9.220;2023-02-11T11:24:28;25.92;;;22.17;;
77563;SDS011;66703;48.076;9.220;2023-02-11T11:26:59;29.63;;;22.40;;
77563;SDS011;66703;48.076;9.220;2023-02-11T11:32:04;28.02;;;22.67;;
77563;SDS011;66703;48.076;9.220;2023-02-11T11:34:47;27.83;;;21.85;;
77563;SDS011;66703;48.076;9.220;2023-02-11T11:37:27;27.38;;;23.60;;
77563;SDS011;66703;48.076;9.220;2023-02-11T11:40:36;25.45;;;21.13;;
77563;SDS011;66703;48.076;9.220;2023-02-11T11:43:00;25.50;;;21.13;;
77563;SDS011;66703;48.076;9.220;2023-02-11T11:45:26;22.83;;;19.23;;
77563;SDS011;66703;48.076;9.220;2023-02-11T11:47:57;26.23;;;19.67;;
77563;SDS011;66703;48.076;9.220;2023-02-11T11:55:24;20.77;;;18.13;;
77563;SDS011;66703;48.076;9.220;2023-02-11T11:57:52;24.33;;;20.20;;
77563;SDS011;66703;48.076;9.220;2023-02-11T12:00:19;23.20;;;19.70;;
77563;SDS011;66703;48.076;9.220;2023-02-11T12:06:02;24.70;;;19.63;;
77563;SDS011;66703;48.076;9.220;2023-02-11T12:11:51;23.20;;;16.67;;
77563;SDS011;66703;48.076;9.220;2023-02-11T12:17:02;22.92;;;15.82;;
77563;SDS011;66703;48.076;9.220;2023-02-11T12:30:52;15.93;;;14.20;;
77563;SDS011;66703;48.076;9.220;2023-02-11T12:33:30;16.88;;;12.88;;
77563;SDS011;66703;48.076;9.220;2023-02-11T12:45:06;17.63;;;12.18;;
77563;SDS011;66703;48.076;9.220;2023-02-11T12:55:56;19.25;;;15.32;;
77563;SDS011;66703;48.076;9.220;2023-02-11T12:58:25;22.33;;;16.77;;
77563;SDS011;66703;48.076;9.220;2023-02-11T13:01:05;22.85;;;18.30;;
77563;SDS011;66703;48.076;9.220;2023-02-11T13:03:38;24.65;;;17.02;;
77563;SDS011;66703;48.076;9.220;2023-02-11T13:06:11;16.10;;;14.38;;
77563;SDS011;66703;48.076;9.220;2023-02-11T13:08:40;19.20;;;15.02;;
77563;SDS011;66703;48.076;9.220;2023-02-11T13:11:11;21.45;;;17.45;;
77563;SDS011;66703;48.076;9.220;2023-02-11T13:14:05;18.77;;;15.88;;
77563;SDS011;66703;48.076;9.220;2023-02-11T13:19:24;19.80;;;15.60;;
77563;SDS011;66703;48.076;9.220;2023-02-11T13:22:17;21.92;;;16.48;;
77563;SDS011;66703;48.076;9.220;2023-02-11T13:24:58;21.95;;;15.73;;
77563;SDS011;66703;48.076;9.220;2023-02-11T13:27:39;22.23;;;19.83;;
77563;SDS011;66703;48.076;9.220;2023-02-11T13:30:23;21.30;;;18.15;;
77563;SDS011;66703;48.076;9.220;2023-02-11T13:35:41;22.35;;;18.42;;
77563;SDS011;66703;48.076;9.220;2023-02-11T13:40:43;25.38;;;18.50;;
77563;SDS011;66703;48.076;9.220;2023-02-11T13:43:21;25.58;;;19.38;;
77563;SDS011;66703;48.076;9.220;2023-02-11T13:45:48;22.08;;;18.42;;
77563;SDS011;66703;48.076;9.220;2023-02-11T13:50:50;25.85;;;20.38;;
77563;SDS011;66703;48.076;9.220;2023-02-11T13:53:49;23.33;;;19.88;;
77563;SDS011;66703;48.076;9.220;2023-02-11T13:56:32;28.33;;;21.67;;
77563;SDS011;66703;48.076;9.220;2023-02-11T13:59:00;26.80;;;20.77;;
77563;SDS011;66703;48.076;9.220;2023-02-11T14:04:31;33.13;;;26.80;;
77563;SDS011;66703;48.076;9.220;2023-02-11T14:13:17;30.33;;;22.67;;
77563;SDS011;66703;48.076;9.220;2023-02-11T14:16:06;27.60;;;24.63;;
77563;SDS011;66703;48.076;9.220;2023-02-11T14:28:53;31.77;;;25.00;;
77563;SDS011;66703;48.076;9.220;2023-02-11T14:31:27;31.80;;;25.63;;
77563;SDS011;66703;48.076;9.220;2023-02-11T14:34:28;35.40;;;24.45;;
77563;SDS011;66703;48.076;9.220;2023-02-11T14:37:05;27.08;;;22.20;;
77563;SDS011;66703;48.076;9.220;2023-02-11T14:39:57;31.73;;;27.55;;
77563;SDS011;66703;48.076;9.220;2023-02-11T14:42:27;31.73;;;25.83;;
77563;SDS011;66703;48.076;9.220;2023-02-11T14:44:55;32.30;;;26.80;;
77563;SDS011;66703;48.076;9.220;2023-02-11T14:47:28;33.20;;;27.10;;
77563;SDS011;66703;48.076;9.220;2023-02-11T14:49:59;31.45;;;23.63;;
77563;SDS011;66703;48.076;9.220;2023-02-11T14:52:26;30.73;;;23.90;;
77563;SDS011;66703;48.076;9.220;2023-02-11T14:57:47;36.60;;;25.63;;
77563;SDS011;66703;48.076;9.220;2023-02-11T15:00:19;33.72;;;27.00;;
77563;SDS011;66703;48.076;9.220;2023-02-11T15:02:46;32.67;;;29.35;;
77563;SDS011;66703;48.076;9.220;2023-02-11T15:05:15;32.50;;;28.92;;
77563;SDS011;66703;48.076;9.220;2023-02-11T15:07:45;39.67;;;32.10;;
77563;SDS011;66703;48.076;9.220;2023-02-11T15:10:32;34.90;;;26.67;;
77563;SDS011;66703;48.076;9.220;2023-02-11T15:13:00;30.90;;;24.52;;
77563;SDS011;66703;48.076;9.220;2023-02-11T15:15:26;34.38;;;24.27;;
77563;SDS011;66703;48.076;9.220;2023-02-11T15:17:53;31.08;;;25.67;;
77563;SDS011;66703;48.076;9.220;2023-02-11T15:20:26;34.05;;;26.70;;
77563;SDS011;66703;48.076;9.220;2023-02-11T15:22:54;32.28;;;24.60;;
77563;SDS011;66703;48.076;9.220;2023-02-11T15:25:21;36.50;;;25.23;;
77563;SDS011;66703;48.076;9.220;2023-02-11T15:27:52;36.47;;;26.88;;
77563;SDS011;66703;48.076;9.220;2023-02-11T15:32:45;38.47;;;27.67;;
77563;SDS011;66703;48.076;9.220;2023-02-11T15:35:11;34.45;;;28.83;;
77563;SDS011;66703;48.076;9.220;2023-02-11T15:37:37;36.13;;;30.65;;
77563;SDS011;66703;48.076;9.220;2023-02-11T15:40:08;39.63;;;28.33;;
77563;SDS011;66703;48.076;9.220;2023-02-11T15:42:36;37.03;;;29.05;;
77563;SDS011;66703;48.076;9.220;2023-02-11T15:47:49;38.40;;;31.05;;
77563;SDS011;66703;48.076;9.220;2023-02-11T15:50:29;35.67;;;27.00;;
77563;SDS011;66703;48.076;9.220;2023-02-11T15:52:57;37.00;;;31.65;;
77563;SDS011;66703;48.076;9.220;2023-02-11T15:55:25;43.60;;;38.70;;
77563;SDS011;66703;48.076;9.220;2023-02-11T15:57:52;35.15;;;29.10;;
77563;SDS011;66703;48.076;9.220;2023-02-11T16:00:20;38.65;;;29.77;;
77563;SDS011;66703;48.076;9.220;2023-02-11T16:02:48;39.95;;;29.50;;
77563;SDS011;66703;48.076;9.220;2023-02-11T16:10:57;38.40;;;29.00;;
77563;SDS011;66703;48.076;9.220;2023-02-11T16:13:26;38.33;;;30.15;;
77563;SDS011;66703;48.076;9.220;2023-02-11T16:15:56;37.78;;;30.80;;
77563;SDS011;66703;48.076;9.220;2023-02-11T16:20:50;37.30;;;29.42;;
77563;SDS011;66703;48.076;9.220;2023-02-11T16:23:18;36.40;;;29.85;;
77563;SDS011;66703;48.076;9.220;2023-02-11T16:25:47;39.67;;;32.17;;
77563;SDS011;66703;48.076;9.220;2023-02-11T16:28:13;39.45;;;33.50;;
77563;SDS011;66703;48.076;9.220;2023-02-11T16:30:39;34.88;;;30.90;;
77563;SDS011;66703;48.076;9.220;2023-02-11T16:33:08;36.33;;;31.45;;
77563;SDS011;66703;48.076;9.220;2023-02-11T16:35:34;35.85;;;31.23;;
77563;SDS011;66703;48.076;9.220;2023-02-11T16:38:01;35.80;;;29.35;;
77563;SDS011;66703;48.076;9.220;2023-02-11T16:40:26;37.65;;;29.35;;
77563;SDS011;66703;48.076;9.220;2023-02-11T16:42:52;37.10;;;33.08;;
77563;SDS011;66703;48.076;9.220;2023-02-11T16:45:17;40.13;;;30.95;;
77563;SDS011;66703;48.076;9.220;2023-02-11T16:47:43;37.80;;;28.42;;
77563;SDS011;66703;48.076;9.220;2023-02-11T16:50:09;40.10;;;31.35;;
77563;SDS011;66703;48.076;9.220;2023-02-11T16:52:36;40.88;;;34.05;;
77563;SDS011;66703;48.076;9.220;2023-02-11T16:55:02;40.05;;;35.40;;
77563;SDS011;66703;48.076;9.220;2023-02-11T16:57:29;40.97;;;34.22;;
77563;SDS011;66703;48.076;9.220;2023-02-11T16:59:55;43.72;;;33.92;;
77563;SDS011;66703;48.076;9.220;2023-02-11T17:02:21;39.13;;;33.25;;